createdAt,value
2022-11-07T00:02:34.332Z,18.6
2022-11-07T00:05:22.442Z,17.4
2022-11-07T00:08:09.779Z,18.6
2022-11-07T00:10:57.072Z,18.4
2022-11-07T00:13:44.859Z,19
2022-11-07T00:16:32.659Z,16.9
2022-11-07T00:19:20.831Z,18.9
2022-11-07T00:22:08.233Z,17.8
2022-11-07T00:24:55.557Z,18.9
2022-11-07T00:27:42.969Z,17.5
2022-11-07T00:30:30.281Z,18.5
2022-11-07T00:33:17.755Z,18.2
2022-11-07T00:36:05.159Z,18.5
2022-11-07T00:38:54.504Z,17.6
2022-11-07T00:41:42.412Z,17
2022-11-07T00:44:33.273Z,17.6
2022-11-07T00:47:21.741Z,19.8
2022-11-07T00:50:09.051Z,18.6
2022-11-07T00:52:56.251Z,16.3
2022-11-07T00:55:43.467Z,17.3
2022-11-07T00:58:32.330Z,19.1
2022-11-07T01:01:21.905Z,18.3
2022-11-07T01:04:12.382Z,17.8
2022-11-07T01:07:31.872Z,17.6
2022-11-07T01:10:20.316Z,16.8
2022-11-07T01:13:07.624Z,19.4
2022-11-07T01:15:54.990Z,17.9
2022-11-07T01:18:42.385Z,18.2
2022-11-07T01:21:29.660Z,17.3
2022-11-07T01:24:17.303Z,16.9
2022-11-07T01:27:04.679Z,18.8
2022-11-07T01:29:52.022Z,18
2022-11-07T01:32:39.377Z,17.4
2022-11-07T01:35:26.638Z,19.4
2022-11-07T01:38:14.059Z,19
2022-11-07T01:41:01.431Z,18.6
2022-11-07T01:44:20.500Z,18.3
2022-11-07T01:47:41.310Z,20.5
2022-11-07T01:50:28.671Z,20.1
2022-11-07T01:53:16.423Z,19.5
2022-11-07T01:56:04.105Z,20.3
2022-11-07T01:58:58.351Z,20.1
2022-11-07T02:01:47.450Z,20.5
2022-11-07T02:04:35.422Z,21
2022-11-07T02:07:23.093Z,20
2022-11-07T02:10:10.611Z,22.5
2022-11-07T02:12:59.411Z,22
2022-11-07T02:15:48.501Z,22.3
2022-11-07T02:18:37.121Z,22.1
2022-11-07T02:21:26.884Z,20.8
2022-11-07T02:24:26.096Z,20.9
2022-11-07T02:27:17.823Z,18.8
2022-11-07T02:30:10.039Z,20.3
2022-11-07T02:33:05.392Z,21.1
2022-11-07T02:36:03.014Z,21.2
2022-11-07T02:38:54.453Z,20.4
2022-11-07T02:41:44.605Z,18.9
2022-11-07T02:44:32.985Z,18.9
2022-11-07T02:47:21.713Z,18.8
2022-11-07T02:50:09.102Z,20.2
2022-11-07T02:52:59.398Z,19.5
2022-11-07T02:55:46.749Z,21.4
2022-11-07T02:58:34.389Z,20
2022-11-07T03:01:27.528Z,22.1
2022-11-07T03:04:14.897Z,21.2
2022-11-07T03:07:02.115Z,19.5
2022-11-07T03:09:49.471Z,21.4
2022-11-07T03:12:37.034Z,21.1
2022-11-07T03:15:24.452Z,21.6
2022-11-07T03:18:11.743Z,20.6
2022-11-07T03:20:59.009Z,22.1
2022-11-07T03:23:46.639Z,21.3
2022-11-07T03:26:34.181Z,21.2
2022-11-07T03:29:22.477Z,21.1
2022-11-07T03:32:09.969Z,22.3
2022-11-07T03:34:57.461Z,20.4
2022-11-07T03:37:44.705Z,21.2
2022-11-07T03:40:32.955Z,22.1
2022-11-07T03:43:21.366Z,20.9
2022-11-07T03:46:08.639Z,21.3
2022-11-07T03:48:56.424Z,21.9
2022-11-07T03:51:43.710Z,20.5
2022-11-07T03:54:31.090Z,22.9
2022-11-07T03:57:18.971Z,21.9
2022-11-07T04:00:06.435Z,20.3
2022-11-07T04:02:55.629Z,19.7
2022-11-07T04:05:43.002Z,21.4
2022-11-07T04:08:31.353Z,20.3
2022-11-07T04:11:20.174Z,20.7
2022-11-07T04:14:39.378Z,20.3
2022-11-07T04:17:58.446Z,19.5
2022-11-07T04:20:45.705Z,20
2022-11-07T04:23:33.235Z,21.9
2022-11-07T04:26:21.869Z,21.6
2022-11-07T04:29:41.161Z,20.6
2022-11-07T04:32:28.477Z,21.7
2022-11-07T04:35:15.761Z,22.9
2022-11-07T04:38:04.142Z,20.6
2022-11-07T04:40:52.592Z,20.6
2022-11-07T04:43:40.337Z,21.4
2022-11-07T04:46:27.690Z,21.2
2022-11-07T04:49:14.939Z,21.3
2022-11-07T04:52:02.464Z,21.4
2022-11-07T04:54:49.686Z,22.1
2022-11-07T04:57:36.979Z,22.7
2022-11-07T05:00:24.303Z,21
2022-11-07T05:03:12.303Z,21.1
2022-11-07T05:06:00.040Z,21.5
2022-11-07T05:08:49.158Z,20.4
2022-11-07T05:11:36.605Z,18.3
2022-11-07T05:14:23.942Z,21.5
2022-11-07T05:17:11.463Z,19.3
2022-11-07T05:19:59.800Z,20
2022-11-07T05:22:50.106Z,20
2022-11-07T05:26:11.888Z,19.9
2022-11-07T05:28:59.122Z,18.3
2022-11-07T05:31:46.536Z,20.9
2022-11-07T05:34:34.121Z,20
2022-11-07T05:37:22.183Z,21.7
2022-11-07T05:40:09.537Z,19
2022-11-07T05:42:57.598Z,19.5
2022-11-07T05:45:46.043Z,19.1
2022-11-07T05:48:33.695Z,18.2
2022-11-07T05:51:22.491Z,18.2
2022-11-07T05:54:09.864Z,19.1
2022-11-07T05:56:57.086Z,19.7
2022-11-07T05:59:44.839Z,19.6
2022-11-07T06:02:32.399Z,19.5
2022-11-07T06:05:24.213Z,19.8
2022-11-07T06:08:12.622Z,18.9
2022-11-07T06:10:59.987Z,17.5
2022-11-07T06:13:50.207Z,18
2022-11-07T06:16:38.851Z,17.1
2022-11-07T06:19:26.183Z,19.6
2022-11-07T06:22:13.426Z,16.8
2022-11-07T06:25:00.763Z,18.2
2022-11-07T06:27:49.966Z,17.6
2022-11-07T06:30:38.325Z,16
2022-11-07T06:33:26.152Z,17.5
2022-11-07T06:36:14.604Z,16.4
2022-11-07T06:39:01.996Z,16.5
2022-11-07T06:41:49.403Z,16.8
2022-11-07T06:44:36.905Z,16.9
2022-11-07T06:47:24.110Z,16.3
2022-11-07T06:50:11.513Z,16
2022-11-07T06:52:58.826Z,16.4
2022-11-07T06:55:47.600Z,16.1
2022-11-07T06:58:35.146Z,16.8
2022-11-07T07:01:22.867Z,15.8
2022-11-07T07:04:10.494Z,15.4
2022-11-07T07:06:58.533Z,15.8
2022-11-07T07:09:45.912Z,15.7
2022-11-07T07:12:33.660Z,16.5
2022-11-07T07:15:22.485Z,14.7
2022-11-07T07:18:09.869Z,14.9
2022-11-07T07:20:57.409Z,15.4
2022-11-07T07:23:51.166Z,15.3
2022-11-07T07:26:39.074Z,13.4
2022-11-07T07:29:26.491Z,13.8
2022-11-07T07:32:13.989Z,14.9
2022-11-07T07:35:01.429Z,14.2
2022-11-07T07:37:49.999Z,13.8
2022-11-07T07:40:37.519Z,12.9
2022-11-07T07:43:24.886Z,11.5
2022-11-07T07:46:13.914Z,12.6
2022-11-07T07:49:05.019Z,12.4
2022-11-07T07:51:53.185Z,12.1
2022-11-07T07:54:41.015Z,11.8
2022-11-07T07:57:28.347Z,11.6
2022-11-07T08:00:15.789Z,11.1
2022-11-07T08:03:03.611Z,11.8
2022-11-07T08:05:54.742Z,9.8
2022-11-07T08:08:43.798Z,10.5
2022-11-07T08:11:31.234Z,10.6
2022-11-07T08:14:18.919Z,9.5
2022-11-07T08:17:06.408Z,8.7
2022-11-07T08:19:53.716Z,9.1
2022-11-07T08:22:41.012Z,8.6
2022-11-07T08:25:28.398Z,8.9
2022-11-07T08:28:15.891Z,9
2022-11-07T08:31:04.381Z,9.4
2022-11-07T08:33:54.029Z,7.7
2022-11-07T08:36:43.175Z,9
2022-11-07T08:39:30.506Z,9.2
2022-11-07T08:42:17.853Z,8.6
2022-11-07T08:45:05.342Z,8.8
2022-11-07T08:47:53.838Z,8.4
2022-11-07T08:50:42.882Z,8.2
2022-11-07T08:53:30.408Z,8.7
2022-11-07T08:56:18.734Z,8.1
2022-11-07T08:59:06.119Z,8.4
2022-11-07T09:02:38.966Z,8
2022-11-07T09:05:35.387Z,7.7
2022-11-07T09:08:23.730Z,9.2
2022-11-07T09:11:11.196Z,8.1
2022-11-07T09:14:00.141Z,7.9
2022-11-07T09:16:47.551Z,8.4
2022-11-07T09:19:35.164Z,8.5
2022-11-07T09:22:23.105Z,8.3
2022-11-07T09:25:10.445Z,6.8
2022-11-07T09:27:58.278Z,7.7
2022-11-07T09:30:47.964Z,7.8
2022-11-07T09:33:38.225Z,6.9
2022-11-07T09:36:25.566Z,7.5
2022-11-07T09:39:12.967Z,7.6
2022-11-07T09:42:00.471Z,7.2
2022-11-07T09:44:58.853Z,7
2022-11-07T09:47:47.287Z,8.3
2022-11-07T09:50:43.412Z,7.5
2022-11-07T09:53:34.100Z,6.8
2022-11-07T09:56:26.661Z,7.2
2022-11-07T09:59:17.066Z,8.3
2022-11-07T10:02:10.984Z,7.4
2022-11-07T10:05:00.903Z,7.9
2022-11-07T10:07:49.950Z,7.6
2022-11-07T10:10:47.323Z,8
2022-11-07T10:13:40.926Z,6.6
2022-11-07T10:16:46.534Z,6
2022-11-07T10:19:46.564Z,7.7
2022-11-07T10:22:49.021Z,7.4
2022-11-07T10:25:49.734Z,7
2022-11-07T10:28:45.664Z,6.9
2022-11-07T10:31:45.699Z,6.1
2022-11-07T10:34:39.821Z,6.3
2022-11-07T10:37:31.841Z,7.6
2022-11-07T10:40:19.803Z,7.1
2022-11-07T10:43:08.512Z,7.2
2022-11-07T10:46:02.924Z,7.3
2022-11-07T10:48:59.719Z,6.7
2022-11-07T10:51:48.705Z,6.3
2022-11-07T10:54:37.421Z,6.5
2022-11-07T10:57:24.832Z,6
2022-11-07T11:00:15.590Z,7.2
2022-11-07T11:03:10.061Z,6.3
2022-11-07T11:06:02.155Z,6.9
2022-11-07T11:09:06.419Z,6.3
2022-11-07T11:12:02.157Z,6.8
2022-11-07T11:14:51.387Z,6.6
2022-11-07T11:17:50.088Z,6.2
2022-11-07T11:20:47.215Z,6.1
2022-11-07T11:23:42.128Z,6
2022-11-07T11:26:31.656Z,5.6
2022-11-07T11:29:24.955Z,6.1
2022-11-07T11:32:19.385Z,6.1
2022-11-07T11:35:12.203Z,6
2022-11-07T11:38:13.388Z,5.8
2022-11-07T11:41:10.415Z,5.7
2022-11-07T11:44:05.064Z,5.5
2022-11-07T11:47:03.430Z,5.1
2022-11-07T11:50:00.159Z,5
2022-11-07T11:52:55.842Z,6.6
2022-11-07T11:55:49.651Z,5.1
2022-11-07T11:58:58.345Z,6
2022-11-07T12:02:07.479Z,6.3
2022-11-07T12:05:18.459Z,6.7
2022-11-07T12:08:20.600Z,6.1
2022-11-07T12:11:25.075Z,5.6
2022-11-07T12:14:22.824Z,5.6
2022-11-07T12:17:26.281Z,5.9
2022-11-07T12:20:21.830Z,5.7
2022-11-07T12:23:14.179Z,5.7
2022-11-07T12:26:10.381Z,6
2022-11-07T12:29:02.343Z,5.6
2022-11-07T12:32:04.381Z,5.2
2022-11-07T12:35:03.427Z,5.3
2022-11-07T12:38:07.679Z,5.9
2022-11-07T12:41:12.005Z,5.1
2022-11-07T12:44:09.650Z,4.6
2022-11-07T12:47:08.574Z,5.8
2022-11-07T12:50:07.645Z,4.8
2022-11-07T12:53:08.745Z,5.4
2022-11-07T12:56:08.911Z,5.5
2022-11-07T12:59:01.401Z,5.7
2022-11-07T13:01:55.010Z,5.5
2022-11-07T13:04:49.894Z,5.9
2022-11-07T13:07:41.798Z,5.9
2022-11-07T13:10:38.057Z,4.8
2022-11-07T13:13:38.488Z,5.5
2022-11-07T13:16:39.180Z,5.1
2022-11-07T13:19:36.403Z,5.6
2022-11-07T13:22:27.525Z,5.3
2022-11-07T13:25:21.213Z,5.4
2022-11-07T13:28:12.448Z,5.1
2022-11-07T13:31:23.300Z,5.4
2022-11-07T13:34:21.046Z,5.8
2022-11-07T13:37:10.365Z,5.4
2022-11-07T13:40:04.524Z,5.6
2022-11-07T13:43:07.908Z,5.6
2022-11-07T13:46:00.093Z,5.6
2022-11-07T13:48:49.805Z,6.6
2022-11-07T13:51:40.413Z,5.1
2022-11-07T13:54:30.380Z,5.8
2022-11-07T13:57:25.197Z,6
2022-11-07T14:00:19.684Z,5.3
2022-11-07T14:03:14.069Z,5.9
2022-11-07T14:06:12.231Z,4.8
2022-11-07T14:09:01.417Z,6
2022-11-07T14:11:50.918Z,4.5
2022-11-07T14:14:38.888Z,5.1
2022-11-07T14:17:26.349Z,5.5
2022-11-07T14:20:19.835Z,5.5
2022-11-07T14:23:07.450Z,4.7
2022-11-07T14:25:58.335Z,4.8
2022-11-07T14:28:48.837Z,4.8
2022-11-07T14:31:38.344Z,4.9
2022-11-07T14:34:25.713Z,5.5
2022-11-07T14:37:13.415Z,5.5
2022-11-07T14:40:03.716Z,6.5
2022-11-07T14:42:52.972Z,5.4
2022-11-07T14:46:10.805Z,6.3
2022-11-07T14:49:03.674Z,5.9
2022-11-07T14:51:51.413Z,6.4
2022-11-07T14:54:40.625Z,5.6
2022-11-07T14:57:29.389Z,5.8
2022-11-07T15:00:20.118Z,5.9
2022-11-07T15:03:08.012Z,5.8
2022-11-07T15:06:06.634Z,6.3
2022-11-07T15:09:07.723Z,6.7
2022-11-07T15:11:56.631Z,6.6
2022-11-07T15:14:45.646Z,6.4
2022-11-07T15:17:46.153Z,7.3
2022-11-07T15:20:35.816Z,7.3
2022-11-07T15:23:24.466Z,7.8
2022-11-07T15:26:15.208Z,7.4
2022-11-07T15:29:07.193Z,7
2022-11-07T15:32:00.583Z,6.6
2022-11-07T15:35:12.313Z,7
2022-11-07T15:38:10.655Z,7.2
2022-11-07T15:41:03.206Z,8.2
2022-11-07T15:43:50.799Z,7.1
2022-11-07T15:46:38.127Z,8.4
2022-11-07T15:49:26.243Z,8.8
2022-11-07T15:52:14.951Z,8.4
2022-11-07T15:55:02.285Z,8
2022-11-07T15:57:50.072Z,9.2
2022-11-07T16:00:38.983Z,8.5
2022-11-07T16:03:26.846Z,8.6
2022-11-07T16:06:14.216Z,8
2022-11-07T16:09:10.946Z,8.7
2022-11-07T16:12:02.155Z,7.8
2022-11-07T16:14:49.773Z,9.5
2022-11-07T16:17:40.152Z,8.5
2022-11-07T16:20:27.781Z,8.3
2022-11-07T16:23:18.046Z,9.6
2022-11-07T16:26:05.569Z,10
2022-11-07T16:28:55.609Z,10.1
2022-11-07T16:31:43.037Z,9.6
2022-11-07T16:34:30.452Z,9.6
2022-11-07T16:37:17.804Z,9.6
2022-11-07T16:40:05.431Z,12.1
2022-11-07T16:42:59.214Z,10.8
2022-11-07T16:45:48.055Z,10.3
2022-11-07T16:48:37.374Z,10.5
2022-11-07T16:51:25.256Z,12.1
2022-11-07T16:54:12.696Z,10.4
2022-11-07T16:57:00.055Z,11.1
2022-11-07T16:59:47.605Z,12.2
2022-11-07T17:02:37.001Z,11.8
2022-11-07T17:05:24.537Z,10.2
2022-11-07T17:08:11.847Z,10.1
2022-11-07T17:11:02.971Z,11.4
2022-11-07T17:13:51.551Z,11.5
2022-11-07T17:16:38.978Z,10.8
2022-11-07T17:19:29.342Z,11.3
2022-11-07T17:22:16.803Z,10.1
2022-11-07T17:25:04.599Z,11.6
2022-11-07T17:27:52.686Z,11.2
2022-11-07T17:30:41.069Z,11.4
2022-11-07T17:33:28.673Z,10.8
2022-11-07T17:36:16.233Z,11
2022-11-07T17:39:10.237Z,12
2022-11-07T17:42:00.646Z,11.6
2022-11-07T17:44:48.061Z,10.6
2022-11-07T17:47:35.561Z,10
2022-11-07T17:50:22.942Z,10.9
2022-11-07T17:53:10.326Z,9.6
2022-11-07T17:55:57.706Z,11.8
2022-11-07T17:58:45.170Z,12.1
2022-11-07T18:01:34.705Z,11.6
2022-11-07T18:04:23.830Z,10.6
2022-11-07T18:07:11.138Z,10.4
2022-11-07T18:09:58.641Z,9.9
2022-11-07T18:12:46.670Z,11.6
2022-11-07T18:15:34.390Z,11.3
2022-11-07T18:18:22.977Z,12.3
2022-11-07T18:21:11.641Z,12.2
2022-11-07T18:23:59.190Z,12.2
2022-11-07T18:26:47.310Z,11.7
2022-11-07T18:29:35.943Z,11.3
2022-11-07T18:32:24.541Z,11.6
2022-11-07T18:35:11.966Z,11.6
2022-11-07T18:37:59.293Z,10.8
2022-11-07T18:40:46.659Z,11.1
2022-11-07T18:43:41.145Z,9.7
2022-11-07T18:46:28.562Z,10.5
2022-11-07T18:49:15.765Z,11.4
2022-11-07T18:52:04.183Z,10.4
2022-11-07T18:54:51.412Z,11.9
2022-11-07T18:57:38.963Z,9.9
2022-11-07T19:00:26.961Z,11.1
2022-11-07T19:03:14.682Z,11
2022-11-07T19:06:02.225Z,11.4
2022-11-07T19:08:50.248Z,10.6
2022-11-07T19:11:37.953Z,10.5
2022-11-07T19:14:25.355Z,11.4
2022-11-07T19:17:15.801Z,11.2
2022-11-07T19:20:03.395Z,10.4
2022-11-07T19:22:52.324Z,10.9
2022-11-07T19:25:39.683Z,10
2022-11-07T19:28:27.915Z,11.1
2022-11-07T19:31:15.298Z,10.6
2022-11-07T19:34:02.801Z,9.4
2022-11-07T19:36:51.110Z,9.4
2022-11-07T19:39:38.484Z,10.4
2022-11-07T19:42:25.924Z,10.1
2022-11-07T19:45:13.415Z,9.7
2022-11-07T19:48:00.879Z,10.6
2022-11-07T19:50:48.452Z,11
2022-11-07T19:53:36.133Z,10
2022-11-07T19:56:23.623Z,11.2
2022-11-07T19:59:13.233Z,10.4
2022-11-07T20:02:30.550Z,10.7
2022-11-07T20:05:19.222Z,9.7
2022-11-07T20:08:08.729Z,10.1
2022-11-07T20:10:56.213Z,9.9
2022-11-07T20:13:43.580Z,10.6
2022-11-07T20:16:31.399Z,10.3
2022-11-07T20:19:21.370Z,10.5
2022-11-07T20:22:08.804Z,10.6
2022-11-07T20:24:58.046Z,10
2022-11-07T20:27:45.461Z,10.2
2022-11-07T20:30:33.822Z,11.7
2022-11-07T20:33:25.640Z,10.5
2022-11-07T20:36:13.035Z,10.3
2022-11-07T20:39:01.837Z,10.5
2022-11-07T20:41:49.669Z,11
2022-11-07T20:44:37.849Z,11.4
2022-11-07T20:47:26.655Z,10.7
2022-11-07T20:50:14.064Z,9.6
2022-11-07T20:53:01.567Z,10.5
2022-11-07T20:55:49.444Z,9.3
2022-11-07T20:58:36.816Z,9.5
2022-11-07T21:01:27.070Z,10.1
2022-11-07T21:04:20.273Z,10.1
2022-11-07T21:07:07.637Z,9.8
2022-11-07T21:09:55.033Z,8.5
2022-11-07T21:12:42.463Z,9.4
2022-11-07T21:15:29.904Z,10.5
2022-11-07T21:18:17.830Z,9.1
2022-11-07T21:21:05.684Z,9.6
2022-11-07T21:23:54.904Z,10
2022-11-07T21:26:43.300Z,9.6
2022-11-07T21:29:30.820Z,9.1
2022-11-07T21:32:18.308Z,10
2022-11-07T21:35:05.681Z,9.1
2022-11-07T21:37:53.994Z,10.2
2022-11-07T21:40:41.266Z,10.5
2022-11-07T21:43:28.546Z,10.6
2022-11-07T21:46:15.920Z,8.7
2022-11-07T21:49:05.938Z,10.1
2022-11-07T21:51:53.522Z,9.6
2022-11-07T21:54:41.630Z,9.5
2022-11-07T21:57:29.366Z,9.2
2022-11-07T22:00:16.647Z,11.1
2022-11-07T22:03:04.452Z,8.5
2022-11-07T22:05:51.784Z,9.2
2022-11-07T22:08:39.110Z,9.2
2022-11-07T22:11:26.677Z,9.4
2022-11-07T22:14:13.988Z,9.2
2022-11-07T22:17:03.080Z,9.5
2022-11-07T22:19:50.770Z,9.4
2022-11-07T22:22:38.140Z,8.3
2022-11-07T22:25:25.574Z,8.6
2022-11-07T22:28:12.826Z,8.5
2022-11-07T22:31:00.229Z,9.2
2022-11-07T22:33:50.961Z,7.9
2022-11-07T22:36:39.680Z,8.9
2022-11-07T22:39:27.015Z,8.8
2022-11-07T22:42:17.347Z,8.4
2022-11-07T22:45:07.048Z,9.1
2022-11-07T22:47:54.948Z,8.6
2022-11-07T22:50:42.428Z,7.8
2022-11-07T22:53:30.080Z,8.6
2022-11-07T22:56:18.174Z,7.7
2022-11-07T22:59:05.573Z,8.2
2022-11-07T23:01:53.437Z,7.9
2022-11-07T23:04:41.039Z,7.5
2022-11-07T23:07:28.503Z,7.2
2022-11-07T23:10:15.913Z,8
2022-11-07T23:13:04.003Z,8.1
2022-11-07T23:15:51.297Z,7.9
2022-11-07T23:18:38.910Z,7.3
2022-11-07T23:21:26.734Z,7.6
2022-11-07T23:24:14.800Z,7.8
2022-11-07T23:27:02.860Z,6.9
2022-11-07T23:29:50.212Z,7.7
2022-11-07T23:32:37.607Z,7.8
2022-11-07T23:35:26.672Z,7.1
2022-11-07T23:38:17.086Z,7.1
2022-11-07T23:41:04.709Z,7.3
2022-11-07T23:43:53.936Z,7.5
2022-11-07T23:46:41.289Z,7.6
2022-11-07T23:50:00.996Z,6.9
2022-11-07T23:53:20.640Z,6.8
2022-11-07T23:56:39.712Z,7.6
2022-11-07T23:59:27.893Z,7.3
